createdAt,value
2023-02-06T00:03:07.327Z,-3.60
2023-02-06T00:08:10.753Z,-1.20
2023-02-06T00:13:14.009Z,-3.50
2023-02-06T00:18:18.728Z,-3.50
2023-02-06T00:23:22.128Z,-3.50
2023-02-06T00:28:25.400Z,-3.40
2023-02-06T00:33:30.282Z,-2.20
2023-02-06T00:38:33.904Z,-3.40
2023-02-06T00:43:38.246Z,-3.40
2023-02-06T00:48:45.078Z,-1.00
2023-02-06T00:53:50.995Z,-0.90
2023-02-06T00:58:55.796Z,-3.40
2023-02-06T01:04:00.535Z,-3.50
2023-02-06T01:09:03.955Z,-3.40
2023-02-06T01:14:07.340Z,-3.40
2023-02-06T01:19:12.691Z,-3.40
2023-02-06T01:24:16.293Z,-3.50
2023-02-06T01:29:20.435Z,-3.50
2023-02-06T01:34:25.137Z,-3.50
2023-02-06T01:39:28.507Z,-2.30
2023-02-06T01:44:34.495Z,-3.60
2023-02-06T01:49:42.945Z,-3.50
2023-02-06T01:54:49.396Z,-3.70
2023-02-06T01:59:58.420Z,-3.70
2023-02-06T02:05:04.803Z,-3.90
2023-02-06T02:10:09.321Z,-3.80
2023-02-06T02:15:12.740Z,-4.00
2023-02-06T02:20:44.064Z,-4.00
2023-02-06T02:26:16.486Z,-4.00
2023-02-06T02:31:49.634Z,-0.80
2023-02-06T02:37:01.777Z,-4.10
2023-02-06T02:42:12.080Z,-4.10
2023-02-06T02:47:18.410Z,-3.10
2023-02-06T02:52:23.372Z,-1.30
2023-02-06T02:57:30.807Z,-4.20
2023-02-06T03:02:37.863Z,-4.20
2023-02-06T03:07:54.290Z,-7.10
2023-02-06T03:13:05.356Z,-4.20
2023-02-06T03:18:13.241Z,-4.10
2023-02-06T03:23:23.083Z,-4.20
2023-02-06T03:28:29.884Z,-4.20
2023-02-06T03:33:37.508Z,-4.20
2023-02-06T03:38:42.451Z,-4.20
2023-02-06T03:43:49.824Z,-4.30
2023-02-06T03:48:57.738Z,-4.30
2023-02-06T03:54:05.189Z,-1.50
2023-02-06T03:59:08.840Z,-1.70
2023-02-06T04:04:12.298Z,-4.40
2023-02-06T04:09:17.066Z,-4.40
2023-02-06T04:14:20.574Z,-3.70
2023-02-06T04:19:24.067Z,-4.40
2023-02-06T04:24:30.946Z,-4.50
2023-02-06T04:29:34.549Z,-4.60
2023-02-06T04:34:38.834Z,-4.70
2023-02-06T04:39:43.662Z,-4.70
2023-02-06T04:44:47.004Z,-4.70
2023-02-06T04:49:50.345Z,-4.10
2023-02-06T04:54:55.063Z,-5.00
2023-02-06T04:59:58.684Z,-3.70
2023-02-06T05:05:02.011Z,-3.20
2023-02-06T05:10:09.008Z,-3.90
2023-02-06T05:15:12.321Z,-5.20
2023-02-06T05:20:15.756Z,-5.20
2023-02-06T05:25:20.559Z,-5.30
2023-02-06T05:30:23.892Z,-5.30
2023-02-06T05:35:27.482Z,-5.30
2023-02-06T05:40:32.195Z,-5.30
2023-02-06T05:45:36.206Z,-5.30
2023-02-06T05:50:39.653Z,-4.30
2023-02-06T05:55:52.758Z,-5.30
2023-02-06T06:00:56.129Z,-4.30
2023-02-06T06:06:00.632Z,-5.20
2023-02-06T06:11:05.505Z,-5.20
2023-02-06T06:16:09.107Z,-3.80
2023-02-06T06:21:12.803Z,-5.20
2023-02-06T06:26:18.027Z,-5.20
2023-02-06T06:31:21.525Z,-5.30
2023-02-06T06:36:25.044Z,-3.90
2023-02-06T06:41:29.912Z,-5.40
2023-02-06T06:46:33.408Z,-5.40
2023-02-06T06:51:36.741Z,-5.30
2023-02-06T06:56:41.454Z,-5.10
2023-02-06T07:01:44.755Z,-5.00
2023-02-06T07:06:48.291Z,-5.00
2023-02-06T07:11:52.980Z,-4.90
2023-02-06T07:16:56.774Z,-4.20
2023-02-06T07:22:00.231Z,-4.10
2023-02-06T07:27:05.018Z,-0.90
2023-02-06T07:32:08.719Z,-3.80
2023-02-06T07:37:12.083Z,-3.90
2023-02-06T07:42:16.813Z,-3.70
2023-02-06T07:47:28.766Z,-3.50
2023-02-06T07:52:32.147Z,-3.20
2023-02-06T07:57:36.923Z,-3.10
2023-02-06T08:02:40.295Z,-2.70
2023-02-06T08:07:43.648Z,-2.30
2023-02-06T08:12:48.308Z,-1.70
2023-02-06T08:17:52.267Z,-1.10
2023-02-06T08:22:56.509Z,-0.80
2023-02-06T08:28:01.905Z,-1.30
2023-02-06T08:33:05.329Z,-1.50
2023-02-06T08:38:09.052Z,-0.80
2023-02-06T08:43:13.779Z,-1.90
2023-02-06T08:48:17.328Z,-1.70
2023-02-06T08:53:20.784Z,-0.20
2023-02-06T08:58:25.539Z,-1.50
2023-02-06T09:03:28.857Z,-0.80
2023-02-06T09:08:32.708Z,1.90
2023-02-06T09:13:37.674Z,-0.90
2023-02-06T09:18:41.103Z,-0.80
2023-02-06T09:23:46.599Z,1.70
2023-02-06T09:28:53.320Z,2.80
2023-02-06T09:33:56.738Z,1.30
2023-02-06T09:39:00.106Z,2.10
2023-02-06T09:44:12.264Z,3.10
2023-02-06T09:49:20.105Z,3.40
2023-02-06T09:54:34.049Z,3.40
2023-02-06T09:59:45.060Z,0.30
2023-02-06T10:04:57.204Z,1.40
2023-02-06T10:10:05.608Z,-0.40
2023-02-06T10:15:16.396Z,2.00
2023-02-06T10:20:23.160Z,0.00
2023-02-06T10:25:31.655Z,2.40
2023-02-06T10:30:53.710Z,-0.30
2023-02-06T10:36:03.248Z,-0.10
2023-02-06T10:41:15.323Z,2.20
2023-02-06T10:46:40.021Z,2.80
2023-02-06T10:51:48.631Z,1.40
2023-02-06T10:56:54.472Z,3.00
2023-02-06T11:02:16.653Z,1.70
2023-02-06T11:07:26.887Z,1.20
2023-02-06T11:12:35.332Z,2.30
2023-02-06T11:17:40.165Z,3.30
2023-02-06T11:22:52.352Z,2.40
2023-02-06T11:27:57.573Z,0.70
2023-02-06T11:33:06.198Z,1.30
2023-02-06T11:38:17.170Z,0.70
2023-02-06T11:43:23.558Z,3.20
2023-02-06T11:48:38.543Z,2.20
2023-02-06T11:53:56.431Z,3.00
2023-02-06T11:59:07.051Z,3.30
2023-02-06T12:04:23.890Z,3.60
2023-02-06T12:09:27.857Z,1.20
2023-02-06T12:14:36.381Z,1.50
2023-02-06T12:19:49.435Z,3.20
2023-02-06T12:24:55.265Z,3.30
2023-02-06T12:30:04.083Z,2.70
2023-02-06T12:35:17.525Z,3.50
2023-02-06T12:40:34.631Z,3.20
2023-02-06T12:45:45.342Z,2.70
2023-02-06T12:51:08.893Z,2.60
2023-02-06T12:56:22.804Z,3.20
2023-02-06T13:01:40.306Z,3.50
2023-02-06T13:06:52.320Z,3.20
2023-02-06T13:12:06.552Z,3.20
2023-02-06T13:17:11.951Z,2.80
2023-02-06T13:22:49.463Z,2.90
2023-02-06T13:27:53.097Z,3.20
2023-02-06T13:32:58.310Z,3.40
2023-02-06T13:38:29.753Z,2.90
2023-02-06T13:43:33.314Z,2.40
2023-02-06T13:48:53.430Z,2.80
2023-02-06T13:59:30.368Z,2.30
2023-02-06T14:04:34.545Z,2.20
2023-02-06T14:10:04.131Z,2.50
2023-02-06T14:15:26.721Z,2.50
2023-02-06T14:20:40.602Z,2.50
2023-02-06T14:25:54.609Z,2.40
2023-02-06T14:31:12.661Z,2.30
2023-02-06T14:36:28.932Z,2.10
2023-02-06T14:41:33.340Z,2.30
2023-02-06T14:46:40.824Z,2.20
2023-02-06T14:51:44.212Z,2.10
2023-02-06T14:56:47.460Z,2.10
2023-02-06T15:01:54.869Z,2.30
2023-02-06T15:06:59.944Z,2.00
2023-02-06T15:12:05.163Z,1.70
2023-02-06T15:17:21.073Z,1.50
2023-02-06T15:22:29.522Z,1.50
2023-02-06T15:27:34.796Z,1.60
2023-02-06T15:32:41.008Z,1.50
2023-02-06T15:37:44.303Z,1.60
2023-02-06T15:42:48.894Z,1.60
2023-02-06T15:47:55.823Z,1.40
2023-02-06T15:52:59.141Z,1.50
2023-02-06T15:58:05.201Z,1.30
2023-02-06T16:03:19.319Z,1.30
2023-02-06T16:08:27.592Z,1.00
2023-02-06T16:13:33.193Z,1.00
2023-02-06T16:18:39.157Z,0.70
2023-02-06T16:23:47.205Z,0.80
2023-02-06T16:28:59.473Z,0.90
2023-02-06T16:34:20.752Z,0.80
2023-02-06T16:39:24.336Z,0.60
2023-02-06T16:44:43.028Z,0.60
2023-02-06T16:49:49.739Z,0.50
2023-02-06T16:54:55.747Z,0.50
2023-02-06T16:59:59.708Z,0.70
2023-02-06T17:05:05.155Z,0.60
2023-02-06T17:10:10.075Z,0.40
2023-02-06T17:15:14.552Z,0.40
2023-02-06T17:20:29.089Z,0.30
2023-02-06T17:25:32.955Z,0.40
2023-02-06T17:30:38.321Z,0.30
2023-02-06T17:35:43.357Z,0.60
2023-02-06T17:40:46.949Z,0.70
2023-02-06T17:45:50.374Z,0.60
2023-02-06T17:50:54.991Z,0.40
2023-02-06T17:56:00.442Z,0.10
2023-02-06T18:01:04.593Z,-0.20
2023-02-06T18:06:09.764Z,-0.30
2023-02-06T18:11:14.445Z,-0.40
2023-02-06T18:16:19.871Z,-0.60
2023-02-06T18:21:25.178Z,-0.70
2023-02-06T18:26:28.673Z,-0.70
2023-02-06T18:31:33.836Z,-0.60
2023-02-06T18:36:38.914Z,-0.60
2023-02-06T18:41:59.835Z,-0.70
2023-02-06T18:47:03.178Z,-0.80
2023-02-06T18:52:08.828Z,-1.00
2023-02-06T18:57:12.110Z,-1.20
2023-02-06T19:02:15.417Z,-1.10
2023-02-06T19:07:20.098Z,-1.30
2023-02-06T19:12:23.397Z,-1.30
2023-02-06T19:17:28.248Z,-1.30
2023-02-06T19:22:35.137Z,-1.20
2023-02-06T19:27:39.362Z,-1.00
2023-02-06T19:32:43.512Z,-1.10
2023-02-06T19:37:48.454Z,-1.20
2023-02-06T19:42:51.708Z,-1.30
2023-02-06T19:47:57.181Z,-1.10
2023-02-06T19:53:02.231Z,-1.40
2023-02-06T19:58:06.085Z,-1.40
2023-02-06T20:03:10.037Z,-1.50
2023-02-06T20:08:14.978Z,-1.50
2023-02-06T20:13:18.369Z,-1.80
2023-02-06T20:18:21.747Z,-4.10
2023-02-06T20:23:26.836Z,-1.90
2023-02-06T20:28:30.482Z,-2.00
2023-02-06T20:33:35.282Z,-1.90
2023-02-06T20:38:40.320Z,1.10
2023-02-06T20:43:43.795Z,-1.90
2023-02-06T20:48:48.610Z,-2.00
2023-02-06T20:53:54.077Z,-2.10
2023-02-06T20:58:58.045Z,-2.20
2023-02-06T21:04:05.347Z,-2.30
2023-02-06T21:09:11.139Z,-2.40
2023-02-06T21:14:15.532Z,-2.40
2023-02-06T21:19:21.368Z,-2.50
2023-02-06T21:24:26.097Z,-2.70
2023-02-06T21:29:29.479Z,-2.90
2023-02-06T21:34:32.738Z,-2.90
2023-02-06T21:39:38.915Z,-3.10
2023-02-06T21:44:42.546Z,-3.20
2023-02-06T21:49:46.570Z,-3.20
2023-02-06T21:54:51.264Z,-3.00
2023-02-06T21:59:54.605Z,-3.10
2023-02-06T22:04:59.726Z,-3.20
2023-02-06T22:10:05.452Z,-3.30
2023-02-06T22:15:09.989Z,-2.90
2023-02-06T22:20:15.420Z,-3.40
2023-02-06T22:25:21.959Z,-3.30
2023-02-06T22:30:25.429Z,-3.40
2023-02-06T22:35:28.767Z,-3.30
2023-02-06T22:40:33.431Z,-3.20
2023-02-06T22:45:37.027Z,-3.30
2023-02-06T22:50:40.545Z,-3.30
2023-02-06T22:56:02.539Z,-3.30
2023-02-06T23:01:06.218Z,-3.40
2023-02-06T23:06:11.288Z,-3.50
2023-02-06T23:11:17.483Z,-3.40
2023-02-06T23:16:21.085Z,-3.40
2023-02-06T23:21:26.621Z,-3.40
2023-02-06T23:26:36.489Z,-3.40
2023-02-06T23:31:40.062Z,-3.50
2023-02-06T23:36:43.696Z,-3.50
2023-02-06T23:41:48.406Z,-3.50
2023-02-06T23:46:51.711Z,-3.60
2023-02-06T23:51:55.078Z,-2.70
2023-02-06T23:56:59.751Z,-3.70
